sensor_id;sensor_type;location;lat;lon;timestamp;temperature;humidity
72940;DHT22;61094;51.154;13.570;2022-10-17T00:02:03;14.30;79.60
72940;DHT22;61094;51.154;13.570;2022-10-17T00:04:29;14.20;79.10
72940;DHT22;61094;51.154;13.570;2022-10-17T00:06:57;14.20;79.00
72940;DHT22;61094;51.154;13.570;2022-10-17T00:09:25;14.20;79.10
72940;DHT22;61094;51.154;13.570;2022-10-17T00:11:52;14.20;79.60
72940;DHT22;61094;51.154;13.570;2022-10-17T00:14:18;14.20;79.50
72940;DHT22;61094;51.154;13.570;2022-10-17T00:16:45;14.20;79.40
72940;DHT22;61094;51.154;13.570;2022-10-17T00:19:12;14.20;79.50
72940;DHT22;61094;51.154;13.570;2022-10-17T00:21:39;14.10;79.00
72940;DHT22;61094;51.154;13.570;2022-10-17T00:24:07;14.10;79.40
72940;DHT22;61094;51.154;13.570;2022-10-17T00:26:34;14.00;79.30
72940;DHT22;61094;51.154;13.570;2022-10-17T00:29:01;14.00;79.30
72940;DHT22;61094;51.154;13.570;2022-10-17T00:31:27;14.00;79.40
72940;DHT22;61094;51.154;13.570;2022-10-17T00:33:54;14.00;79.20
72940;DHT22;61094;51.154;13.570;2022-10-17T00:36:22;14.00;79.40
72940;DHT22;61094;51.154;13.570;2022-10-17T00:38:51;14.00;79.50
72940;DHT22;61094;51.154;13.570;2022-10-17T00:41:21;14.00;79.50
72940;DHT22;61094;51.154;13.570;2022-10-17T00:43:50;14.00;79.30
72940;DHT22;61094;51.154;13.570;2022-10-17T00:46:18;14.00;80.30
72940;DHT22;61094;51.154;13.570;2022-10-17T00:48:47;13.90;80.50
72940;DHT22;61094;51.154;13.570;2022-10-17T00:51:15;14.00;80.50
72940;DHT22;61094;51.154;13.570;2022-10-17T00:53:42;13.90;80.80
72940;DHT22;61094;51.154;13.570;2022-10-17T00:56:09;13.90;79.70
72940;DHT22;61094;51.154;13.570;2022-10-17T00:58:38;13.90;79.80
72940;DHT22;61094;51.154;13.570;2022-10-17T01:01:05;13.90;79.70
72940;DHT22;61094;51.154;13.570;2022-10-17T01:03:32;13.80;79.40
72940;DHT22;61094;51.154;13.570;2022-10-17T01:05:59;13.80;80.10
72940;DHT22;61094;51.154;13.570;2022-10-17T01:08:25;13.80;80.40
72940;DHT22;61094;51.154;13.570;2022-10-17T01:11:00;13.80;80.20
72940;DHT22;61094;51.154;13.570;2022-10-17T01:13:50;13.70;80.60
72940;DHT22;61094;51.154;13.570;2022-10-17T01:16:22;13.80;80.20
72940;DHT22;61094;51.154;13.570;2022-10-17T01:18:57;13.80;80.40
72940;DHT22;61094;51.154;13.570;2022-10-17T01:21:30;13.80;80.70
72940;DHT22;61094;51.154;13.570;2022-10-17T01:24:35;13.90;81.30
72940;DHT22;61094;51.154;13.570;2022-10-17T01:33:29;14.00;80.10
72940;DHT22;61094;51.154;13.570;2022-10-17T01:36:02;14.00;79.80
72940;DHT22;61094;51.154;13.570;2022-10-17T01:38:33;14.00;80.30
72940;DHT22;61094;51.154;13.570;2022-10-17T01:41:06;14.10;80.00
72940;DHT22;61094;51.154;13.570;2022-10-17T01:43:36;14.10;81.30
72940;DHT22;61094;51.154;13.570;2022-10-17T01:46:09;14.10;80.30
72940;DHT22;61094;51.154;13.570;2022-10-17T01:48:42;14.10;81.10
72940;DHT22;61094;51.154;13.570;2022-10-17T01:51:14;14.10;82.30
72940;DHT22;61094;51.154;13.570;2022-10-17T01:53:49;14.20;82.80
72940;DHT22;61094;51.154;13.570;2022-10-17T01:56:18;14.10;80.80
72940;DHT22;61094;51.154;13.570;2022-10-17T01:58:49;14.10;80.60
72940;DHT22;61094;51.154;13.570;2022-10-17T02:01:17;14.10;82.50
72940;DHT22;61094;51.154;13.570;2022-10-17T02:03:48;14.10;81.20
72940;DHT22;61094;51.154;13.570;2022-10-17T02:06:16;14.10;86.30
72940;DHT22;61094;51.154;13.570;2022-10-17T02:08:44;14.10;86.50
72940;DHT22;61094;51.154;13.570;2022-10-17T02:11:14;14.20;88.30
72940;DHT22;61094;51.154;13.570;2022-10-17T02:13:56;14.20;85.30
72940;DHT22;61094;51.154;13.570;2022-10-17T02:16:34;14.20;85.00
72940;DHT22;61094;51.154;13.570;2022-10-17T02:19:11;14.20;85.70
72940;DHT22;61094;51.154;13.570;2022-10-17T02:21:48;14.20;83.50
72940;DHT22;61094;51.154;13.570;2022-10-17T02:24:22;14.20;84.10
72940;DHT22;61094;51.154;13.570;2022-10-17T02:27:04;14.20;83.80
72940;DHT22;61094;51.154;13.570;2022-10-17T02:29:35;14.20;83.80
72940;DHT22;61094;51.154;13.570;2022-10-17T02:32:05;14.20;83.80
72940;DHT22;61094;51.154;13.570;2022-10-17T02:34:37;14.20;84.60
72940;DHT22;61094;51.154;13.570;2022-10-17T02:37:06;14.20;83.80
72940;DHT22;61094;51.154;13.570;2022-10-17T02:39:34;14.20;83.60
72940;DHT22;61094;51.154;13.570;2022-10-17T02:42:06;14.20;83.80
72940;DHT22;61094;51.154;13.570;2022-10-17T02:44:37;14.20;83.30
72940;DHT22;61094;51.154;13.570;2022-10-17T02:47:10;14.20;84.40
72940;DHT22;61094;51.154;13.570;2022-10-17T02:49:42;14.20;84.80
72940;DHT22;61094;51.154;13.570;2022-10-17T02:52:13;14.20;84.20
72940;DHT22;61094;51.154;13.570;2022-10-17T02:54:44;14.20;83.80
72940;DHT22;61094;51.154;13.570;2022-10-17T02:57:17;14.20;84.40
72940;DHT22;61094;51.154;13.570;2022-10-17T02:59:45;14.10;84.00
72940;DHT22;61094;51.154;13.570;2022-10-17T03:02:12;14.20;85.10
72940;DHT22;61094;51.154;13.570;2022-10-17T03:04:43;14.20;84.90
72940;DHT22;61094;51.154;13.570;2022-10-17T03:07:10;14.20;83.70
72940;DHT22;61094;51.154;13.570;2022-10-17T03:09:37;14.20;87.00
72940;DHT22;61094;51.154;13.570;2022-10-17T03:12:04;14.20;85.00
72940;DHT22;61094;51.154;13.570;2022-10-17T03:14:31;14.20;87.70
72940;DHT22;61094;51.154;13.570;2022-10-17T03:16:58;14.20;85.10
72940;DHT22;61094;51.154;13.570;2022-10-17T03:19:25;14.30;88.20
72940;DHT22;61094;51.154;13.570;2022-10-17T03:21:53;14.30;89.30
72940;DHT22;61094;51.154;13.570;2022-10-17T03:24:21;14.30;88.40
72940;DHT22;61094;51.154;13.570;2022-10-17T03:26:47;14.30;89.80
72940;DHT22;61094;51.154;13.570;2022-10-17T03:29:14;14.30;86.40
72940;DHT22;61094;51.154;13.570;2022-10-17T03:31:41;14.40;85.10
72940;DHT22;61094;51.154;13.570;2022-10-17T03:34:08;14.40;84.00
72940;DHT22;61094;51.154;13.570;2022-10-17T03:36:34;14.40;84.20
72940;DHT22;61094;51.154;13.570;2022-10-17T03:39:03;14.40;85.80
72940;DHT22;61094;51.154;13.570;2022-10-17T03:41:29;14.40;85.50
72940;DHT22;61094;51.154;13.570;2022-10-17T03:43:56;14.40;83.70
72940;DHT22;61094;51.154;13.570;2022-10-17T03:46:23;14.40;85.00
72940;DHT22;61094;51.154;13.570;2022-10-17T03:48:49;14.40;84.90
72940;DHT22;61094;51.154;13.570;2022-10-17T03:51:16;14.40;86.50
72940;DHT22;61094;51.154;13.570;2022-10-17T03:53:43;14.40;84.60
72940;DHT22;61094;51.154;13.570;2022-10-17T03:56:13;14.40;83.90
72940;DHT22;61094;51.154;13.570;2022-10-17T03:58:41;14.40;83.90
72940;DHT22;61094;51.154;13.570;2022-10-17T04:01:10;14.40;87.90
72940;DHT22;61094;51.154;13.570;2022-10-17T04:03:37;14.30;89.60
72940;DHT22;61094;51.154;13.570;2022-10-17T04:06:04;14.30;85.80
72940;DHT22;61094;51.154;13.570;2022-10-17T04:08:32;14.30;86.20
72940;DHT22;61094;51.154;13.570;2022-10-17T04:10:59;14.30;86.70
72940;DHT22;61094;51.154;13.570;2022-10-17T04:13:28;14.30;90.60
72940;DHT22;61094;51.154;13.570;2022-10-17T04:15:56;14.30;89.80
72940;DHT22;61094;51.154;13.570;2022-10-17T04:18:23;14.30;86.30
72940;DHT22;61094;51.154;13.570;2022-10-17T04:20:50;14.30;87.80
72940;DHT22;61094;51.154;13.570;2022-10-17T04:23:18;14.30;90.50
72940;DHT22;61094;51.154;13.570;2022-10-17T04:25:45;14.30;91.50
72940;DHT22;61094;51.154;13.570;2022-10-17T04:28:12;14.30;92.70
72940;DHT22;61094;51.154;13.570;2022-10-17T04:30:40;14.40;91.90
72940;DHT22;61094;51.154;13.570;2022-10-17T04:33:07;14.40;91.50
72940;DHT22;61094;51.154;13.570;2022-10-17T04:35:34;14.40;91.00
72940;DHT22;61094;51.154;13.570;2022-10-17T04:38:01;14.40;91.40
72940;DHT22;61094;51.154;13.570;2022-10-17T04:40:27;14.40;90.50
72940;DHT22;61094;51.154;13.570;2022-10-17T04:42:54;14.40;88.60
72940;DHT22;61094;51.154;13.570;2022-10-17T04:45:21;14.40;92.80
72940;DHT22;61094;51.154;13.570;2022-10-17T04:47:49;14.40;92.10
72940;DHT22;61094;51.154;13.570;2022-10-17T04:50:16;14.50;93.00
72940;DHT22;61094;51.154;13.570;2022-10-17T04:52:43;14.50;92.00
72940;DHT22;61094;51.154;13.570;2022-10-17T04:55:09;14.40;90.00
72940;DHT22;61094;51.154;13.570;2022-10-17T04:57:36;14.50;90.80
72940;DHT22;61094;51.154;13.570;2022-10-17T05:00:04;14.40;91.80
72940;DHT22;61094;51.154;13.570;2022-10-17T05:02:30;14.50;91.30
72940;DHT22;61094;51.154;13.570;2022-10-17T05:04:59;14.50;90.30
72940;DHT22;61094;51.154;13.570;2022-10-17T05:07:25;14.50;90.90
72940;DHT22;61094;51.154;13.570;2022-10-17T05:09:52;14.50;93.40
72940;DHT22;61094;51.154;13.570;2022-10-17T05:12:19;14.50;91.30
72940;DHT22;61094;51.154;13.570;2022-10-17T05:14:46;14.50;94.50
72940;DHT22;61094;51.154;13.570;2022-10-17T05:17:12;14.50;91.80
72940;DHT22;61094;51.154;13.570;2022-10-17T05:19:39;14.40;92.70
72940;DHT22;61094;51.154;13.570;2022-10-17T05:22:07;14.50;93.30
72940;DHT22;61094;51.154;13.570;2022-10-17T05:24:34;14.50;94.20
72940;DHT22;61094;51.154;13.570;2022-10-17T05:27:01;14.40;94.60
72940;DHT22;61094;51.154;13.570;2022-10-17T05:29:27;14.40;93.10
72940;DHT22;61094;51.154;13.570;2022-10-17T05:31:54;14.40;93.50
72940;DHT22;61094;51.154;13.570;2022-10-17T05:34:21;14.40;92.20
72940;DHT22;61094;51.154;13.570;2022-10-17T05:36:48;14.40;94.20
72940;DHT22;61094;51.154;13.570;2022-10-17T05:39:17;14.40;92.40
72940;DHT22;61094;51.154;13.570;2022-10-17T05:41:44;14.40;91.30
72940;DHT22;61094;51.154;13.570;2022-10-17T05:44:11;14.30;92.20
72940;DHT22;61094;51.154;13.570;2022-10-17T05:46:38;14.30;93.90
72940;DHT22;61094;51.154;13.570;2022-10-17T05:49:05;14.30;93.00
72940;DHT22;61094;51.154;13.570;2022-10-17T05:51:32;14.40;93.80
72940;DHT22;61094;51.154;13.570;2022-10-17T05:53:59;14.30;91.60
72940;DHT22;61094;51.154;13.570;2022-10-17T05:56:27;14.30;94.60
72940;DHT22;61094;51.154;13.570;2022-10-17T05:58:54;14.30;93.60
72940;DHT22;61094;51.154;13.570;2022-10-17T06:01:21;14.30;92.60
72940;DHT22;61094;51.154;13.570;2022-10-17T06:03:48;14.30;92.40
72940;DHT22;61094;51.154;13.570;2022-10-17T06:06:16;14.40;91.10
72940;DHT22;61094;51.154;13.570;2022-10-17T06:08:43;14.40;92.30
72940;DHT22;61094;51.154;13.570;2022-10-17T06:11:11;14.40;92.00
72940;DHT22;61094;51.154;13.570;2022-10-17T06:13:40;14.40;94.60
72940;DHT22;61094;51.154;13.570;2022-10-17T06:16:07;14.50;94.30
72940;DHT22;61094;51.154;13.570;2022-10-17T06:18:34;14.50;93.50
72940;DHT22;61094;51.154;13.570;2022-10-17T06:21:02;14.50;93.70
72940;DHT22;61094;51.154;13.570;2022-10-17T06:23:28;14.60;92.80
72940;DHT22;61094;51.154;13.570;2022-10-17T06:25:57;14.50;92.60
72940;DHT22;61094;51.154;13.570;2022-10-17T06:28:24;14.60;91.50
72940;DHT22;61094;51.154;13.570;2022-10-17T06:30:53;14.60;93.00
72940;DHT22;61094;51.154;13.570;2022-10-17T06:33:19;14.60;93.50
72940;DHT22;61094;51.154;13.570;2022-10-17T06:35:50;14.70;92.90
72940;DHT22;61094;51.154;13.570;2022-10-17T06:38:17;14.70;93.20
72940;DHT22;61094;51.154;13.570;2022-10-17T06:40:44;14.80;93.40
72940;DHT22;61094;51.154;13.570;2022-10-17T06:43:11;14.80;92.70
72940;DHT22;61094;51.154;13.570;2022-10-17T06:45:38;14.80;91.70
72940;DHT22;61094;51.154;13.570;2022-10-17T06:48:07;14.80;91.80
72940;DHT22;61094;51.154;13.570;2022-10-17T06:50:34;14.90;93.30
72940;DHT22;61094;51.154;13.570;2022-10-17T06:53:01;14.90;91.60
72940;DHT22;61094;51.154;13.570;2022-10-17T06:55:28;15.00;91.10
72940;DHT22;61094;51.154;13.570;2022-10-17T06:57:56;15.10;91.40
72940;DHT22;61094;51.154;13.570;2022-10-17T07:00:23;15.10;91.40
72940;DHT22;61094;51.154;13.570;2022-10-17T07:02:51;15.20;91.50
72940;DHT22;61094;51.154;13.570;2022-10-17T07:05:19;15.20;91.10
72940;DHT22;61094;51.154;13.570;2022-10-17T07:07:46;15.30;90.80
72940;DHT22;61094;51.154;13.570;2022-10-17T07:10:13;15.30;90.40
72940;DHT22;61094;51.154;13.570;2022-10-17T07:12:40;15.40;90.10
72940;DHT22;61094;51.154;13.570;2022-10-17T07:15:09;15.50;91.70
72940;DHT22;61094;51.154;13.570;2022-10-17T07:17:36;15.60;91.30
72940;DHT22;61094;51.154;13.570;2022-10-17T07:20:03;15.60;90.10
72940;DHT22;61094;51.154;13.570;2022-10-17T07:22:34;15.70;89.70
72940;DHT22;61094;51.154;13.570;2022-10-17T07:25:01;15.90;90.30
72940;DHT22;61094;51.154;13.570;2022-10-17T07:27:28;16.00;90.00
72940;DHT22;61094;51.154;13.570;2022-10-17T07:29:55;16.20;89.00
72940;DHT22;61094;51.154;13.570;2022-10-17T07:32:22;16.30;88.40
72940;DHT22;61094;51.154;13.570;2022-10-17T07:34:49;16.60;88.00
72940;DHT22;61094;51.154;13.570;2022-10-17T07:37:15;16.70;87.50
72940;DHT22;61094;51.154;13.570;2022-10-17T07:39:43;17.00;87.60
72940;DHT22;61094;51.154;13.570;2022-10-17T07:42:10;17.20;86.70
72940;DHT22;61094;51.154;13.570;2022-10-17T07:44:39;17.40;85.50
72940;DHT22;61094;51.154;13.570;2022-10-17T07:47:06;17.50;84.80
72940;DHT22;61094;51.154;13.570;2022-10-17T07:49:32;17.70;84.30
72940;DHT22;61094;51.154;13.570;2022-10-17T07:51:59;17.90;83.90
72940;DHT22;61094;51.154;13.570;2022-10-17T07:54:26;18.00;83.40
72940;DHT22;61094;51.154;13.570;2022-10-17T07:56:54;18.20;83.00
72940;DHT22;61094;51.154;13.570;2022-10-17T07:59:21;18.40;82.40
72940;DHT22;61094;51.154;13.570;2022-10-17T08:01:48;18.50;82.20
72940;DHT22;61094;51.154;13.570;2022-10-17T08:04:15;18.60;81.60
72940;DHT22;61094;51.154;13.570;2022-10-17T08:06:42;18.70;81.10
72940;DHT22;61094;51.154;13.570;2022-10-17T08:09:09;18.80;80.40
72940;DHT22;61094;51.154;13.570;2022-10-17T08:11:36;18.90;80.60
72940;DHT22;61094;51.154;13.570;2022-10-17T08:14:04;19.10;80.10
72940;DHT22;61094;51.154;13.570;2022-10-17T08:16:32;19.30;77.80
72940;DHT22;61094;51.154;13.570;2022-10-17T08:18:58;19.40;79.00
72940;DHT22;61094;51.154;13.570;2022-10-17T08:21:26;19.60;78.50
72940;DHT22;61094;51.154;13.570;2022-10-17T08:23:53;19.80;77.80
72940;DHT22;61094;51.154;13.570;2022-10-17T08:26:20;19.90;78.20
72940;DHT22;61094;51.154;13.570;2022-10-17T08:28:47;20.10;77.80
72940;DHT22;61094;51.154;13.570;2022-10-17T08:31:17;20.40;76.70
72940;DHT22;61094;51.154;13.570;2022-10-17T08:33:44;20.60;74.10
72940;DHT22;61094;51.154;13.570;2022-10-17T08:36:12;20.80;76.10
72940;DHT22;61094;51.154;13.570;2022-10-17T08:38:39;21.00;73.60
72940;DHT22;61094;51.154;13.570;2022-10-17T08:41:13;21.30;74.20
72940;DHT22;61094;51.154;13.570;2022-10-17T08:43:54;21.60;72.90
72940;DHT22;61094;51.154;13.570;2022-10-17T08:46:28;21.90;73.60
72940;DHT22;61094;51.154;13.570;2022-10-17T08:48:59;22.20;70.30
72940;DHT22;61094;51.154;13.570;2022-10-17T08:51:30;22.70;67.50
72940;DHT22;61094;51.154;13.570;2022-10-17T08:54:04;23.00;69.60
72940;DHT22;61094;51.154;13.570;2022-10-17T08:56:39;23.30;71.30
72940;DHT22;61094;51.154;13.570;2022-10-17T08:59:10;23.70;67.80
72940;DHT22;61094;51.154;13.570;2022-10-17T09:01:43;24.00;69.80
72940;DHT22;61094;51.154;13.570;2022-10-17T09:04:40;24.30;68.50
72940;DHT22;61094;51.154;13.570;2022-10-17T09:07:17;24.40;65.80
72940;DHT22;61094;51.154;13.570;2022-10-17T09:09:52;24.50;68.40
72940;DHT22;61094;51.154;13.570;2022-10-17T09:12:23;24.70;66.50
72940;DHT22;61094;51.154;13.570;2022-10-17T09:15:12;25.00;68.40
72940;DHT22;61094;51.154;13.570;2022-10-17T09:17:50;25.10;62.40
72940;DHT22;61094;51.154;13.570;2022-10-17T09:20:20;25.20;67.00
72940;DHT22;61094;51.154;13.570;2022-10-17T09:22:54;25.30;66.20
72940;DHT22;61094;51.154;13.570;2022-10-17T09:25:22;25.40;64.20
72940;DHT22;61094;51.154;13.570;2022-10-17T09:27:52;25.50;58.30
72940;DHT22;61094;51.154;13.570;2022-10-17T09:30:30;25.60;63.90
72940;DHT22;61094;51.154;13.570;2022-10-17T09:33:01;25.70;61.30
72940;DHT22;61094;51.154;13.570;2022-10-17T09:35:35;25.70;63.40
72940;DHT22;61094;51.154;13.570;2022-10-17T09:38:02;25.70;58.50
72940;DHT22;61094;51.154;13.570;2022-10-17T09:40:33;25.80;64.90
72940;DHT22;61094;51.154;13.570;2022-10-17T09:43:02;25.80;62.90
72940;DHT22;61094;51.154;13.570;2022-10-17T09:45:32;25.90;64.60
72940;DHT22;61094;51.154;13.570;2022-10-17T09:48:10;25.90;60.80
72940;DHT22;61094;51.154;13.570;2022-10-17T09:50:39;25.80;56.80
72940;DHT22;61094;51.154;13.570;2022-10-17T09:53:12;25.70;61.10
72940;DHT22;61094;51.154;13.570;2022-10-17T09:55:42;25.70;61.00
72940;DHT22;61094;51.154;13.570;2022-10-17T09:58:11;25.60;60.50
72940;DHT22;61094;51.154;13.570;2022-10-17T10:00:40;25.60;58.70
72940;DHT22;61094;51.154;13.570;2022-10-17T10:03:11;25.50;60.70
72940;DHT22;61094;51.154;13.570;2022-10-17T10:05:39;25.30;57.40
72940;DHT22;61094;51.154;13.570;2022-10-17T10:08:18;25.10;57.90
72940;DHT22;61094;51.154;13.570;2022-10-17T10:10:45;24.70;58.30
72940;DHT22;61094;51.154;13.570;2022-10-17T10:13:17;24.60;63.60
72940;DHT22;61094;51.154;13.570;2022-10-17T10:15:46;24.50;60.00
72940;DHT22;61094;51.154;13.570;2022-10-17T10:18:29;24.50;62.70
72940;DHT22;61094;51.154;13.570;2022-10-17T10:21:06;24.60;59.40
72940;DHT22;61094;51.154;13.570;2022-10-17T10:23:33;24.60;62.00
72940;DHT22;61094;51.154;13.570;2022-10-17T10:26:17;24.60;61.50
72940;DHT22;61094;51.154;13.570;2022-10-17T10:28:51;24.70;60.00
72940;DHT22;61094;51.154;13.570;2022-10-17T10:31:26;24.90;60.20
72940;DHT22;61094;51.154;13.570;2022-10-17T10:34:11;25.10;59.90
72940;DHT22;61094;51.154;13.570;2022-10-17T10:36:51;25.30;58.90
72940;DHT22;61094;51.154;13.570;2022-10-17T10:39:32;25.50;57.00
72940;DHT22;61094;51.154;13.570;2022-10-17T10:42:02;25.60;55.00
72940;DHT22;61094;51.154;13.570;2022-10-17T10:44:31;25.70;56.60
72940;DHT22;61094;51.154;13.570;2022-10-17T10:47:17;25.70;58.40
72940;DHT22;61094;51.154;13.570;2022-10-17T10:49:46;25.60;57.40
72940;DHT22;61094;51.154;13.570;2022-10-17T10:52:38;25.60;55.90
72940;DHT22;61094;51.154;13.570;2022-10-17T10:55:20;25.70;55.90
72940;DHT22;61094;51.154;13.570;2022-10-17T10:57:50;25.90;54.70
72940;DHT22;61094;51.154;13.570;2022-10-17T11:00:20;26.10;56.90
72940;DHT22;61094;51.154;13.570;2022-10-17T11:02:57;26.30;53.80
72940;DHT22;61094;51.154;13.570;2022-10-17T11:05:35;26.60;57.00
72940;DHT22;61094;51.154;13.570;2022-10-17T11:08:09;27.00;51.10
72940;DHT22;61094;51.154;13.570;2022-10-17T11:10:41;27.20;55.20
72940;DHT22;61094;51.154;13.570;2022-10-17T11:13:13;27.30;51.50
72940;DHT22;61094;51.154;13.570;2022-10-17T11:15:45;27.40;55.60
72940;DHT22;61094;51.154;13.570;2022-10-17T11:18:21;27.40;55.90
72940;DHT22;61094;51.154;13.570;2022-10-17T11:20:54;27.10;52.50
72940;DHT22;61094;51.154;13.570;2022-10-17T11:23:26;26.90;52.50
72940;DHT22;61094;51.154;13.570;2022-10-17T11:25:57;26.90;55.50
72940;DHT22;61094;51.154;13.570;2022-10-17T11:28:25;26.90;52.60
72940;DHT22;61094;51.154;13.570;2022-10-17T11:30:56;26.90;50.40
72940;DHT22;61094;51.154;13.570;2022-10-17T11:33:27;26.90;53.60
72940;DHT22;61094;51.154;13.570;2022-10-17T11:36:00;26.90;54.30
72940;DHT22;61094;51.154;13.570;2022-10-17T11:38:36;26.80;53.30
72940;DHT22;61094;51.154;13.570;2022-10-17T11:41:05;26.90;52.90
72940;DHT22;61094;51.154;13.570;2022-10-17T11:43:37;27.00;53.20
72940;DHT22;61094;51.154;13.570;2022-10-17T11:46:13;27.00;52.90
72940;DHT22;61094;51.154;13.570;2022-10-17T11:48:47;26.90;53.00
72940;DHT22;61094;51.154;13.570;2022-10-17T11:51:18;26.80;51.50
72940;DHT22;61094;51.154;13.570;2022-10-17T11:53:47;26.70;53.70
72940;DHT22;61094;51.154;13.570;2022-10-17T11:56:20;26.80;51.80
72940;DHT22;61094;51.154;13.570;2022-10-17T11:58:52;26.80;52.00
72940;DHT22;61094;51.154;13.570;2022-10-17T12:01:25;26.80;53.40
72940;DHT22;61094;51.154;13.570;2022-10-17T12:04:11;26.90;50.10
72940;DHT22;61094;51.154;13.570;2022-10-17T12:06:51;27.00;49.00
72940;DHT22;61094;51.154;13.570;2022-10-17T12:09:28;27.00;50.30
72940;DHT22;61094;51.154;13.570;2022-10-17T12:11:57;27.00;52.40
72940;DHT22;61094;51.154;13.570;2022-10-17T12:14:41;27.00;51.50
72940;DHT22;61094;51.154;13.570;2022-10-17T12:17:27;27.10;48.60
72940;DHT22;61094;51.154;13.570;2022-10-17T12:20:23;27.00;52.20
72940;DHT22;61094;51.154;13.570;2022-10-17T12:22:53;26.90;49.90
72940;DHT22;61094;51.154;13.570;2022-10-17T12:25:22;26.80;48.80
72940;DHT22;61094;51.154;13.570;2022-10-17T12:28:06;26.60;49.90
72940;DHT22;61094;51.154;13.570;2022-10-17T12:30:35;26.50;49.50
72940;DHT22;61094;51.154;13.570;2022-10-17T12:33:05;26.50;51.60
72940;DHT22;61094;51.154;13.570;2022-10-17T12:35:42;26.60;52.30
72940;DHT22;61094;51.154;13.570;2022-10-17T12:38:27;26.80;53.00
72940;DHT22;61094;51.154;13.570;2022-10-17T12:40:59;26.90;49.40
72940;DHT22;61094;51.154;13.570;2022-10-17T12:43:48;27.10;48.90
72940;DHT22;61094;51.154;13.570;2022-10-17T12:49:24;27.20;47.60
72940;DHT22;61094;51.154;13.570;2022-10-17T12:52:20;27.30;50.40
72940;DHT22;61094;51.154;13.570;2022-10-17T12:54:53;27.50;50.30
72940;DHT22;61094;51.154;13.570;2022-10-17T12:57:26;27.50;46.70
72940;DHT22;61094;51.154;13.570;2022-10-17T12:59:55;27.50;47.00
72940;DHT22;61094;51.154;13.570;2022-10-17T13:02:26;27.40;48.20
72940;DHT22;61094;51.154;13.570;2022-10-17T13:05:05;27.40;49.00
72940;DHT22;61094;51.154;13.570;2022-10-17T13:07:33;27.40;48.90
72940;DHT22;61094;51.154;13.570;2022-10-17T13:10:02;27.40;48.90
72940;DHT22;61094;51.154;13.570;2022-10-17T13:12:32;27.50;48.30
72940;DHT22;61094;51.154;13.570;2022-10-17T13:15:03;27.50;50.10
72940;DHT22;61094;51.154;13.570;2022-10-17T13:17:31;27.60;48.70
72940;DHT22;61094;51.154;13.570;2022-10-17T13:19:59;27.70;50.20
72940;DHT22;61094;51.154;13.570;2022-10-17T13:22:28;27.70;48.20
72940;DHT22;61094;51.154;13.570;2022-10-17T13:25:07;27.70;49.50
72940;DHT22;61094;51.154;13.570;2022-10-17T13:27:35;27.70;49.40
72940;DHT22;61094;51.154;13.570;2022-10-17T13:30:20;27.70;47.60
72940;DHT22;61094;51.154;13.570;2022-10-17T13:32:48;27.80;47.30
72940;DHT22;61094;51.154;13.570;2022-10-17T13:35:21;27.80;50.00
72940;DHT22;61094;51.154;13.570;2022-10-17T13:37:51;27.70;49.40
72940;DHT22;61094;51.154;13.570;2022-10-17T13:40:23;27.70;49.00
72940;DHT22;61094;51.154;13.570;2022-10-17T13:42:51;27.60;49.00
72940;DHT22;61094;51.154;13.570;2022-10-17T13:45:20;27.40;47.70
72940;DHT22;61094;51.154;13.570;2022-10-17T13:47:47;27.20;46.40
72940;DHT22;61094;51.154;13.570;2022-10-17T13:50:23;27.10;49.10
72940;DHT22;61094;51.154;13.570;2022-10-17T13:53:06;26.90;49.40
72940;DHT22;61094;51.154;13.570;2022-10-17T13:55:34;26.80;48.80
72940;DHT22;61094;51.154;13.570;2022-10-17T13:58:14;26.70;49.40
72940;DHT22;61094;51.154;13.570;2022-10-17T14:00:41;26.50;48.80
72940;DHT22;61094;51.154;13.570;2022-10-17T14:03:09;26.30;48.50
72940;DHT22;61094;51.154;13.570;2022-10-17T14:05:58;26.20;50.80
72940;DHT22;61094;51.154;13.570;2022-10-17T14:08:25;26.10;50.20
72940;DHT22;61094;51.154;13.570;2022-10-17T14:10:53;25.90;51.30
72940;DHT22;61094;51.154;13.570;2022-10-17T14:13:22;25.70;50.20
72940;DHT22;61094;51.154;13.570;2022-10-17T14:15:50;25.60;51.10
72940;DHT22;61094;51.154;13.570;2022-10-17T14:18:20;25.40;52.40
72940;DHT22;61094;51.154;13.570;2022-10-17T14:20:48;25.20;52.90
72940;DHT22;61094;51.154;13.570;2022-10-17T14:23:33;25.10;52.30
72940;DHT22;61094;51.154;13.570;2022-10-17T14:26:10;24.90;52.70
72940;DHT22;61094;51.154;13.570;2022-10-17T14:28:38;24.80;52.50
72940;DHT22;61094;51.154;13.570;2022-10-17T14:31:22;24.60;53.80
72940;DHT22;61094;51.154;13.570;2022-10-17T14:33:51;24.40;53.50
72940;DHT22;61094;51.154;13.570;2022-10-17T14:36:19;24.30;54.80
72940;DHT22;61094;51.154;13.570;2022-10-17T14:38:49;24.20;54.70
72940;DHT22;61094;51.154;13.570;2022-10-17T14:41:21;24.10;54.70
72940;DHT22;61094;51.154;13.570;2022-10-17T14:43:54;24.10;54.40
72940;DHT22;61094;51.154;13.570;2022-10-17T14:46:21;24.00;54.20
72940;DHT22;61094;51.154;13.570;2022-10-17T14:48:54;24.00;54.50
72940;DHT22;61094;51.154;13.570;2022-10-17T14:51:21;23.90;54.80
72940;DHT22;61094;51.154;13.570;2022-10-17T14:54:14;23.90;55.70
72940;DHT22;61094;51.154;13.570;2022-10-17T14:56:49;23.70;54.50
72940;DHT22;61094;51.154;13.570;2022-10-17T14:59:16;23.60;55.10
72940;DHT22;61094;51.154;13.570;2022-10-17T15:01:47;23.50;55.90
72940;DHT22;61094;51.154;13.570;2022-10-17T15:04:14;23.50;56.00
72940;DHT22;61094;51.154;13.570;2022-10-17T15:06:41;23.40;56.50
72940;DHT22;61094;51.154;13.570;2022-10-17T15:09:08;23.30;56.30
72940;DHT22;61094;51.154;13.570;2022-10-17T15:11:35;23.20;56.90
72940;DHT22;61094;51.154;13.570;2022-10-17T15:14:03;23.20;57.00
72940;DHT22;61094;51.154;13.570;2022-10-17T15:16:32;23.20;56.90
72940;DHT22;61094;51.154;13.570;2022-10-17T15:18:59;23.20;57.00
72940;DHT22;61094;51.154;13.570;2022-10-17T15:21:27;23.20;57.10
72940;DHT22;61094;51.154;13.570;2022-10-17T15:23:54;23.10;56.90
72940;DHT22;61094;51.154;13.570;2022-10-17T15:26:24;23.10;57.40
72940;DHT22;61094;51.154;13.570;2022-10-17T15:28:52;23.10;57.30
72940;DHT22;61094;51.154;13.570;2022-10-17T15:31:22;23.00;57.20
72940;DHT22;61094;51.154;13.570;2022-10-17T15:33:49;22.80;57.20
72940;DHT22;61094;51.154;13.570;2022-10-17T15:36:22;22.70;57.60
72940;DHT22;61094;51.154;13.570;2022-10-17T15:38:50;22.70;57.70
72940;DHT22;61094;51.154;13.570;2022-10-17T15:41:18;22.50;57.90
72940;DHT22;61094;51.154;13.570;2022-10-17T15:43:45;22.40;58.40
72940;DHT22;61094;51.154;13.570;2022-10-17T15:46:16;22.30;58.80